Terminal Aerodrome Forecast
Issued by NWS

Home | Current Version | Previous Version | Graphics & Text | Print | Product List | Glossary On
Versions: 1 2 3 4 5 6 7 8 9 10 11 12 13 14 15 16 17 18
000
FTUS43 KGRB 271136
TAFAUW
TAF
KAUW 271136Z 2712/2812 00000KT 5SM BR SCT002
      TEMPO 2712/2713 1SM BR BKN002
     FM271400 17003KT 6SM BR SKC
     FM271600 20006KT P6SM SCT250
     FM280000 18003KT P6SM SCT150
     FM280600 VRB03KT P6SM SCT050 BKN100=

USA.gov is the U.S. government's official web portal to all federal, state and local government web resources and services.